sensor_id;sensor_type;location;lat;lon;timestamp;temperature;humidity
25112;DHT22;13092;51.996;4.458;2024-03-22T00:01:56;12.50;99.90
25112;DHT22;13092;51.996;4.458;2024-03-22T00:04:23;12.40;99.90
25112;DHT22;13092;51.996;4.458;2024-03-22T00:06:49;12.60;99.90
25112;DHT22;13092;51.996;4.458;2024-03-22T00:09:17;12.40;99.90
25112;DHT22;13092;51.996;4.458;2024-03-22T00:11:44;12.40;99.90
25112;DHT22;13092;51.996;4.458;2024-03-22T00:14:11;12.40;99.90
25112;DHT22;13092;51.996;4.458;2024-03-22T00:16:39;12.30;99.90
25112;DHT22;13092;51.996;4.458;2024-03-22T00:19:06;12.30;99.90
25112;DHT22;13092;51.996;4.458;2024-03-22T00:21:33;12.50;99.90
25112;DHT22;13092;51.996;4.458;2024-03-22T00:24:00;12.30;99.90
25112;DHT22;13092;51.996;4.458;2024-03-22T00:26:27;12.20;99.90
25112;DHT22;13092;51.996;4.458;2024-03-22T00:28:54;12.20;99.90
25112;DHT22;13092;51.996;4.458;2024-03-22T00:31:20;12.20;99.90
25112;DHT22;13092;51.996;4.458;2024-03-22T00:33:49;12.10;99.90
25112;DHT22;13092;51.996;4.458;2024-03-22T00:36:15;12.10;99.90
25112;DHT22;13092;51.996;4.458;2024-03-22T00:38:42;12.10;99.90
25112;DHT22;13092;51.996;4.458;2024-03-22T00:41:10;12.00;99.90
25112;DHT22;13092;51.996;4.458;2024-03-22T00:43:38;12.00;99.90
25112;DHT22;13092;51.996;4.458;2024-03-22T00:46:04;12.10;99.90
25112;DHT22;13092;51.996;4.458;2024-03-22T00:48:31;12.00;99.90
25112;DHT22;13092;51.996;4.458;2024-03-22T00:50:59;11.90;99.90
25112;DHT22;13092;51.996;4.458;2024-03-22T00:53:26;12.00;99.90
25112;DHT22;13092;51.996;4.458;2024-03-22T00:55:53;11.90;99.90
25112;DHT22;13092;51.996;4.458;2024-03-22T00:58:22;11.90;99.90
25112;DHT22;13092;51.996;4.458;2024-03-22T01:00:48;11.90;99.90
25112;DHT22;13092;51.996;4.458;2024-03-22T01:07:29;11.80;99.90
25112;DHT22;13092;51.996;4.458;2024-03-22T01:09:56;11.80;99.90
25112;DHT22;13092;51.996;4.458;2024-03-22T01:12:22;11.80;99.90
25112;DHT22;13092;51.996;4.458;2024-03-22T01:14:49;11.70;99.90
25112;DHT22;13092;51.996;4.458;2024-03-22T01:17:15;11.60;99.90
25112;DHT22;13092;51.996;4.458;2024-03-22T01:19:43;11.60;99.90
25112;DHT22;13092;51.996;4.458;2024-03-22T01:22:09;11.60;99.90
25112;DHT22;13092;51.996;4.458;2024-03-22T01:24:37;11.60;99.90
25112;DHT22;13092;51.996;4.458;2024-03-22T01:27:03;11.60;99.90
25112;DHT22;13092;51.996;4.458;2024-03-22T01:29:31;11.60;99.90
25112;DHT22;13092;51.996;4.458;2024-03-22T01:31:58;11.60;99.90
25112;DHT22;13092;51.996;4.458;2024-03-22T01:34:25;11.60;99.90
25112;DHT22;13092;51.996;4.458;2024-03-22T01:36:51;11.60;99.90
25112;DHT22;13092;51.996;4.458;2024-03-22T01:39:19;11.60;99.90
25112;DHT22;13092;51.996;4.458;2024-03-22T01:41:48;11.60;99.90
25112;DHT22;13092;51.996;4.458;2024-03-22T01:44:16;11.60;99.90
25112;DHT22;13092;51.996;4.458;2024-03-22T01:46:43;11.60;99.90
25112;DHT22;13092;51.996;4.458;2024-03-22T01:49:12;11.60;99.90
25112;DHT22;13092;51.996;4.458;2024-03-22T01:51:39;11.70;99.90
25112;DHT22;13092;51.996;4.458;2024-03-22T01:54:08;11.70;99.90
25112;DHT22;13092;51.996;4.458;2024-03-22T01:56:36;11.80;99.90
25112;DHT22;13092;51.996;4.458;2024-03-22T01:59:05;11.60;99.90
25112;DHT22;13092;51.996;4.458;2024-03-22T02:01:32;11.70;99.90
25112;DHT22;13092;51.996;4.458;2024-03-22T02:04:00;11.60;99.90
25112;DHT22;13092;51.996;4.458;2024-03-22T02:06:26;11.60;99.90
25112;DHT22;13092;51.996;4.458;2024-03-22T02:08:53;11.60;99.90
25112;DHT22;13092;51.996;4.458;2024-03-22T02:11:20;11.80;99.90
25112;DHT22;13092;51.996;4.458;2024-03-22T02:13:47;11.60;99.90
25112;DHT22;13092;51.996;4.458;2024-03-22T02:16:15;11.60;99.90
25112;DHT22;13092;51.996;4.458;2024-03-22T02:18:42;11.60;99.90
25112;DHT22;13092;51.996;4.458;2024-03-22T02:21:10;11.60;99.90
25112;DHT22;13092;51.996;4.458;2024-03-22T02:23:40;11.60;99.90
25112;DHT22;13092;51.996;4.458;2024-03-22T02:26:08;11.70;99.90
25112;DHT22;13092;51.996;4.458;2024-03-22T02:28:38;11.70;99.90
25112;DHT22;13092;51.996;4.458;2024-03-22T02:31:04;11.50;99.90
25112;DHT22;13092;51.996;4.458;2024-03-22T02:33:32;11.50;99.90
25112;DHT22;13092;51.996;4.458;2024-03-22T02:35:58;11.50;99.90
25112;DHT22;13092;51.996;4.458;2024-03-22T02:38:25;11.60;99.90
25112;DHT22;13092;51.996;4.458;2024-03-22T02:40:54;11.60;99.90
25112;DHT22;13092;51.996;4.458;2024-03-22T02:43:20;11.60;99.90
25112;DHT22;13092;51.996;4.458;2024-03-22T02:45:48;11.50;99.90
25112;DHT22;13092;51.996;4.458;2024-03-22T02:48:14;11.50;99.90
25112;DHT22;13092;51.996;4.458;2024-03-22T02:50:41;11.50;99.90
25112;DHT22;13092;51.996;4.458;2024-03-22T02:53:08;11.50;99.90
25112;DHT22;13092;51.996;4.458;2024-03-22T02:55:38;11.50;99.90
25112;DHT22;13092;51.996;4.458;2024-03-22T02:58:06;11.50;99.90
25112;DHT22;13092;51.996;4.458;2024-03-22T03:00:36;11.60;99.90
25112;DHT22;13092;51.996;4.458;2024-03-22T03:03:03;11.50;99.90
25112;DHT22;13092;51.996;4.458;2024-03-22T03:05:30;11.50;99.90
25112;DHT22;13092;51.996;4.458;2024-03-22T03:07:56;11.40;99.90
25112;DHT22;13092;51.996;4.458;2024-03-22T03:10:23;11.50;99.90
25112;DHT22;13092;51.996;4.458;2024-03-22T03:12:49;11.40;99.90
25112;DHT22;13092;51.996;4.458;2024-03-22T03:15:18;11.40;99.90
25112;DHT22;13092;51.996;4.458;2024-03-22T03:17:44;11.40;99.90
25112;DHT22;13092;51.996;4.458;2024-03-22T03:20:12;11.40;99.90
25112;DHT22;13092;51.996;4.458;2024-03-22T03:22:39;11.40;99.90
25112;DHT22;13092;51.996;4.458;2024-03-22T03:25:07;11.40;99.90
25112;DHT22;13092;51.996;4.458;2024-03-22T03:27:36;11.40;99.90
25112;DHT22;13092;51.996;4.458;2024-03-22T03:30:04;11.40;99.90
25112;DHT22;13092;51.996;4.458;2024-03-22T03:32:32;11.40;99.90
25112;DHT22;13092;51.996;4.458;2024-03-22T03:34:59;11.40;99.90
25112;DHT22;13092;51.996;4.458;2024-03-22T03:37:25;11.40;99.90
25112;DHT22;13092;51.996;4.458;2024-03-22T03:39:53;11.50;99.90
25112;DHT22;13092;51.996;4.458;2024-03-22T03:42:19;11.40;99.90
25112;DHT22;13092;51.996;4.458;2024-03-22T03:44:46;11.40;99.90
25112;DHT22;13092;51.996;4.458;2024-03-22T03:47:13;11.40;99.90
25112;DHT22;13092;51.996;4.458;2024-03-22T03:49:45;11.40;99.90
25112;DHT22;13092;51.996;4.458;2024-03-22T03:52:11;11.40;99.90
25112;DHT22;13092;51.996;4.458;2024-03-22T03:54:38;11.40;99.90
25112;DHT22;13092;51.996;4.458;2024-03-22T03:57:05;11.40;99.90
25112;DHT22;13092;51.996;4.458;2024-03-22T03:59:32;11.40;99.90
25112;DHT22;13092;51.996;4.458;2024-03-22T04:01:58;11.40;99.90
25112;DHT22;13092;51.996;4.458;2024-03-22T04:04:25;11.20;99.90
25112;DHT22;13092;51.996;4.458;2024-03-22T04:06:53;11.40;99.90
25112;DHT22;13092;51.996;4.458;2024-03-22T04:09:20;11.40;99.90
25112;DHT22;13092;51.996;4.458;2024-03-22T04:11:46;11.40;99.90
25112;DHT22;13092;51.996;4.458;2024-03-22T04:14:14;11.40;99.90
25112;DHT22;13092;51.996;4.458;2024-03-22T04:16:40;11.40;99.90
25112;DHT22;13092;51.996;4.458;2024-03-22T04:19:07;11.40;99.90
25112;DHT22;13092;51.996;4.458;2024-03-22T04:21:33;11.40;99.90
25112;DHT22;13092;51.996;4.458;2024-03-22T04:24:02;11.40;99.90
25112;DHT22;13092;51.996;4.458;2024-03-22T04:26:28;11.40;99.90
25112;DHT22;13092;51.996;4.458;2024-03-22T04:28:55;11.40;99.90
25112;DHT22;13092;51.996;4.458;2024-03-22T04:31:22;11.40;99.90
25112;DHT22;13092;51.996;4.458;2024-03-22T04:33:49;11.30;99.90
25112;DHT22;13092;51.996;4.458;2024-03-22T04:36:15;11.30;99.90
25112;DHT22;13092;51.996;4.458;2024-03-22T04:38:42;11.30;99.90
25112;DHT22;13092;51.996;4.458;2024-03-22T04:41:11;11.30;99.90
25112;DHT22;13092;51.996;4.458;2024-03-22T04:43:38;11.30;99.90
25112;DHT22;13092;51.996;4.458;2024-03-22T04:46:05;11.40;99.90
25112;DHT22;13092;51.996;4.458;2024-03-22T04:48:32;11.30;99.90
25112;DHT22;13092;51.996;4.458;2024-03-22T04:50:59;11.30;99.90
25112;DHT22;13092;51.996;4.458;2024-03-22T04:53:26;11.30;99.90
25112;DHT22;13092;51.996;4.458;2024-03-22T04:55:55;11.20;99.90
25112;DHT22;13092;51.996;4.458;2024-03-22T04:58:23;11.20;99.90
25112;DHT22;13092;51.996;4.458;2024-03-22T05:00:56;11.20;99.90
25112;DHT22;13092;51.996;4.458;2024-03-22T05:03:22;11.20;99.90
25112;DHT22;13092;51.996;4.458;2024-03-22T05:05:50;11.30;99.90
25112;DHT22;13092;51.996;4.458;2024-03-22T05:08:16;11.30;99.90
25112;DHT22;13092;51.996;4.458;2024-03-22T05:10:44;11.30;99.90
25112;DHT22;13092;51.996;4.458;2024-03-22T05:13:10;11.40;99.90
25112;DHT22;13092;51.996;4.458;2024-03-22T05:15:38;11.30;99.90
25112;DHT22;13092;51.996;4.458;2024-03-22T05:18:05;11.30;99.90
25112;DHT22;13092;51.996;4.458;2024-03-22T05:20:32;11.20;99.90
25112;DHT22;13092;51.996;4.458;2024-03-22T05:22:58;11.20;99.90
25112;DHT22;13092;51.996;4.458;2024-03-22T05:25:26;11.20;99.90
25112;DHT22;13092;51.996;4.458;2024-03-22T05:27:52;11.20;99.90
25112;DHT22;13092;51.996;4.458;2024-03-22T05:30:19;11.30;99.90
25112;DHT22;13092;51.996;4.458;2024-03-22T05:32:49;11.20;99.90
25112;DHT22;13092;51.996;4.458;2024-03-22T05:35:16;11.40;99.90
25112;DHT22;13092;51.996;4.458;2024-03-22T05:37:44;11.20;99.90
25112;DHT22;13092;51.996;4.458;2024-03-22T05:40:12;11.20;99.90
25112;DHT22;13092;51.996;4.458;2024-03-22T05:42:38;11.20;99.90
25112;DHT22;13092;51.996;4.458;2024-03-22T05:45:06;11.20;99.90
25112;DHT22;13092;51.996;4.458;2024-03-22T05:47:32;11.20;99.90
25112;DHT22;13092;51.996;4.458;2024-03-22T05:50:01;11.20;99.90
25112;DHT22;13092;51.996;4.458;2024-03-22T05:52:29;11.20;99.90
25112;DHT22;13092;51.996;4.458;2024-03-22T05:54:56;11.20;99.90
25112;DHT22;13092;51.996;4.458;2024-03-22T05:57:23;11.20;99.90
25112;DHT22;13092;51.996;4.458;2024-03-22T05:59:50;11.10;99.90
25112;DHT22;13092;51.996;4.458;2024-03-22T06:02:17;11.10;99.90
25112;DHT22;13092;51.996;4.458;2024-03-22T06:04:44;11.20;99.90
25112;DHT22;13092;51.996;4.458;2024-03-22T06:07:12;11.00;99.90
25112;DHT22;13092;51.996;4.458;2024-03-22T06:09:40;11.10;99.90
25112;DHT22;13092;51.996;4.458;2024-03-22T06:12:11;11.10;99.90
25112;DHT22;13092;51.996;4.458;2024-03-22T06:14:39;11.20;99.90
25112;DHT22;13092;51.996;4.458;2024-03-22T06:17:06;11.20;99.90
25112;DHT22;13092;51.996;4.458;2024-03-22T06:19:33;11.20;99.90
25112;DHT22;13092;51.996;4.458;2024-03-22T06:21:59;11.20;99.90
25112;DHT22;13092;51.996;4.458;2024-03-22T06:24:28;11.20;99.90
25112;DHT22;13092;51.996;4.458;2024-03-22T06:26:54;11.50;99.90
25112;DHT22;13092;51.996;4.458;2024-03-22T06:29:22;11.30;99.90
25112;DHT22;13092;51.996;4.458;2024-03-22T06:31:48;11.30;99.90
25112;DHT22;13092;51.996;4.458;2024-03-22T06:34:16;11.40;99.90
25112;DHT22;13092;51.996;4.458;2024-03-22T06:36:42;11.30;99.90
25112;DHT22;13092;51.996;4.458;2024-03-22T06:39:09;11.40;99.90
25112;DHT22;13092;51.996;4.458;2024-03-22T06:41:37;11.40;99.90
25112;DHT22;13092;51.996;4.458;2024-03-22T06:44:04;11.40;99.90
25112;DHT22;13092;51.996;4.458;2024-03-22T06:46:31;11.40;99.90
25112;DHT22;13092;51.996;4.458;2024-03-22T06:48:58;11.50;99.90
25112;DHT22;13092;51.996;4.458;2024-03-22T06:51:24;11.50;99.90
25112;DHT22;13092;51.996;4.458;2024-03-22T06:53:53;11.70;99.90
25112;DHT22;13092;51.996;4.458;2024-03-22T06:56:19;11.50;99.90
25112;DHT22;13092;51.996;4.458;2024-03-22T06:58:48;11.50;99.90
25112;DHT22;13092;51.996;4.458;2024-03-22T07:01:14;11.60;99.90
25112;DHT22;13092;51.996;4.458;2024-03-22T07:03:41;11.50;99.90
25112;DHT22;13092;51.996;4.458;2024-03-22T07:06:11;11.60;99.90
25112;DHT22;13092;51.996;4.458;2024-03-22T07:08:38;11.50;99.90
25112;DHT22;13092;51.996;4.458;2024-03-22T07:11:07;11.70;99.90
25112;DHT22;13092;51.996;4.458;2024-03-22T07:13:34;11.60;99.90
25112;DHT22;13092;51.996;4.458;2024-03-22T07:16:03;11.50;99.90
25112;DHT22;13092;51.996;4.458;2024-03-22T07:18:29;11.60;99.90
25112;DHT22;13092;51.996;4.458;2024-03-22T07:20:57;11.60;99.90
25112;DHT22;13092;51.996;4.458;2024-03-22T07:23:27;11.60;99.90
25112;DHT22;13092;51.996;4.458;2024-03-22T07:25:54;11.50;99.90
25112;DHT22;13092;51.996;4.458;2024-03-22T07:28:20;11.60;99.90
25112;DHT22;13092;51.996;4.458;2024-03-22T07:30:48;11.50;99.90
25112;DHT22;13092;51.996;4.458;2024-03-22T07:33:16;11.50;99.90
25112;DHT22;13092;51.996;4.458;2024-03-22T07:35:43;11.50;99.90
25112;DHT22;13092;51.996;4.458;2024-03-22T07:38:10;11.40;99.90
25112;DHT22;13092;51.996;4.458;2024-03-22T07:40:37;11.50;99.90
25112;DHT22;13092;51.996;4.458;2024-03-22T07:43:03;11.50;99.90
25112;DHT22;13092;51.996;4.458;2024-03-22T07:45:32;11.50;99.90
25112;DHT22;13092;51.996;4.458;2024-03-22T07:47:58;11.40;99.90
25112;DHT22;13092;51.996;4.458;2024-03-22T07:50:27;11.30;99.90
25112;DHT22;13092;51.996;4.458;2024-03-22T07:52:53;11.40;99.90
25112;DHT22;13092;51.996;4.458;2024-03-22T07:55:21;11.40;99.90
25112;DHT22;13092;51.996;4.458;2024-03-22T07:57:48;11.50;99.90
25112;DHT22;13092;51.996;4.458;2024-03-22T08:00:15;11.40;99.90
25112;DHT22;13092;51.996;4.458;2024-03-22T08:02:42;11.40;99.90
25112;DHT22;13092;51.996;4.458;2024-03-22T08:05:09;11.40;99.90
25112;DHT22;13092;51.996;4.458;2024-03-22T08:07:37;11.50;99.90
25112;DHT22;13092;51.996;4.458;2024-03-22T08:10:04;11.50;99.90
25112;DHT22;13092;51.996;4.458;2024-03-22T08:12:30;11.40;99.90
25112;DHT22;13092;51.996;4.458;2024-03-22T08:14:58;11.40;99.90
25112;DHT22;13092;51.996;4.458;2024-03-22T08:17:24;11.40;99.90
25112;DHT22;13092;51.996;4.458;2024-03-22T08:19:51;11.40;99.90
25112;DHT22;13092;51.996;4.458;2024-03-22T08:22:17;11.40;99.90
25112;DHT22;13092;51.996;4.458;2024-03-22T08:24:46;11.50;99.90
25112;DHT22;13092;51.996;4.458;2024-03-22T08:27:12;11.40;99.90
25112;DHT22;13092;51.996;4.458;2024-03-22T08:29:40;11.40;99.90
25112;DHT22;13092;51.996;4.458;2024-03-22T08:32:09;11.40;99.90
25112;DHT22;13092;51.996;4.458;2024-03-22T08:34:37;11.40;99.90
25112;DHT22;13092;51.996;4.458;2024-03-22T08:37:04;11.40;99.90
25112;DHT22;13092;51.996;4.458;2024-03-22T08:39:31;11.40;99.90
25112;DHT22;13092;51.996;4.458;2024-03-22T08:41:59;11.40;99.90
25112;DHT22;13092;51.996;4.458;2024-03-22T08:44:26;11.40;99.90
25112;DHT22;13092;51.996;4.458;2024-03-22T08:46:52;11.40;99.90
25112;DHT22;13092;51.996;4.458;2024-03-22T08:49:19;11.40;99.90
25112;DHT22;13092;51.996;4.458;2024-03-22T08:51:46;11.40;99.90
25112;DHT22;13092;51.996;4.458;2024-03-22T08:54:14;11.40;99.90
25112;DHT22;13092;51.996;4.458;2024-03-22T08:56:40;11.40;99.90
25112;DHT22;13092;51.996;4.458;2024-03-22T08:59:09;11.40;99.90
25112;DHT22;13092;51.996;4.458;2024-03-22T09:01:36;11.40;99.90
25112;DHT22;13092;51.996;4.458;2024-03-22T09:04:03;11.40;99.90
25112;DHT22;13092;51.996;4.458;2024-03-22T09:06:30;11.60;99.90
25112;DHT22;13092;51.996;4.458;2024-03-22T09:08:57;11.30;99.90
25112;DHT22;13092;51.996;4.458;2024-03-22T09:11:24;11.40;99.90
25112;DHT22;13092;51.996;4.458;2024-03-22T09:13:52;11.50;99.90
25112;DHT22;13092;51.996;4.458;2024-03-22T09:16:19;11.50;99.90
25112;DHT22;13092;51.996;4.458;2024-03-22T09:18:47;11.50;99.90
25112;DHT22;13092;51.996;4.458;2024-03-22T09:21:13;11.50;99.90
25112;DHT22;13092;51.996;4.458;2024-03-22T09:23:40;11.50;99.90
25112;DHT22;13092;51.996;4.458;2024-03-22T09:26:06;11.50;99.90
25112;DHT22;13092;51.996;4.458;2024-03-22T09:28:34;11.50;99.90
25112;DHT22;13092;51.996;4.458;2024-03-22T09:31:03;11.70;99.90
25112;DHT22;13092;51.996;4.458;2024-03-22T09:33:34;11.50;99.90
25112;DHT22;13092;51.996;4.458;2024-03-22T09:36:00;11.60;99.90
25112;DHT22;13092;51.996;4.458;2024-03-22T09:38:27;11.50;99.90
25112;DHT22;13092;51.996;4.458;2024-03-22T09:40:54;11.50;99.90
25112;DHT22;13092;51.996;4.458;2024-03-22T09:43:21;11.50;99.90
25112;DHT22;13092;51.996;4.458;2024-03-22T09:45:48;11.50;99.90
25112;DHT22;13092;51.996;4.458;2024-03-22T09:48:17;11.50;99.90
25112;DHT22;13092;51.996;4.458;2024-03-22T09:50:46;11.60;99.90
25112;DHT22;13092;51.996;4.458;2024-03-22T09:53:13;11.60;99.90
25112;DHT22;13092;51.996;4.458;2024-03-22T09:55:45;11.50;99.90
25112;DHT22;13092;51.996;4.458;2024-03-22T09:58:12;11.50;99.90
25112;DHT22;13092;51.996;4.458;2024-03-22T10:00:39;11.60;99.90
25112;DHT22;13092;51.996;4.458;2024-03-22T10:03:06;11.60;99.90
25112;DHT22;13092;51.996;4.458;2024-03-22T10:05:33;11.50;99.90
25112;DHT22;13092;51.996;4.458;2024-03-22T10:08:02;11.60;99.90
25112;DHT22;13092;51.996;4.458;2024-03-22T10:10:29;11.60;99.90
25112;DHT22;13092;51.996;4.458;2024-03-22T10:12:56;11.60;99.90
25112;DHT22;13092;51.996;4.458;2024-03-22T10:15:23;11.60;99.90
25112;DHT22;13092;51.996;4.458;2024-03-22T10:17:52;11.60;99.90
25112;DHT22;13092;51.996;4.458;2024-03-22T10:20:21;11.60;99.90
25112;DHT22;13092;51.996;4.458;2024-03-22T10:22:54;11.60;99.90
25112;DHT22;13092;51.996;4.458;2024-03-22T10:25:25;11.50;99.90
25112;DHT22;13092;51.996;4.458;2024-03-22T10:27:54;11.60;99.90
25112;DHT22;13092;51.996;4.458;2024-03-22T10:30:21;11.60;99.90
25112;DHT22;13092;51.996;4.458;2024-03-22T10:32:49;11.50;99.90
25112;DHT22;13092;51.996;4.458;2024-03-22T10:35:18;11.50;99.90
25112;DHT22;13092;51.996;4.458;2024-03-22T10:37:46;11.50;99.90
25112;DHT22;13092;51.996;4.458;2024-03-22T10:40:12;11.50;99.90
25112;DHT22;13092;51.996;4.458;2024-03-22T10:42:42;11.60;99.90
25112;DHT22;13092;51.996;4.458;2024-03-22T10:45:09;11.50;99.90
25112;DHT22;13092;51.996;4.458;2024-03-22T10:47:37;11.40;99.90
25112;DHT22;13092;51.996;4.458;2024-03-22T10:50:06;11.40;99.90
25112;DHT22;13092;51.996;4.458;2024-03-22T10:52:37;11.50;99.90
25112;DHT22;13092;51.996;4.458;2024-03-22T10:55:05;11.50;99.90
25112;DHT22;13092;51.996;4.458;2024-03-22T10:57:36;11.50;99.90
25112;DHT22;13092;51.996;4.458;2024-03-22T11:00:08;11.50;99.90
25112;DHT22;13092;51.996;4.458;2024-03-22T11:02:37;11.50;99.90
25112;DHT22;13092;51.996;4.458;2024-03-22T11:05:04;11.60;99.90
25112;DHT22;13092;51.996;4.458;2024-03-22T11:07:31;11.50;99.90
25112;DHT22;13092;51.996;4.458;2024-03-22T11:09:57;11.50;99.90
25112;DHT22;13092;51.996;4.458;2024-03-22T11:12:25;11.60;99.90
25112;DHT22;13092;51.996;4.458;2024-03-22T11:14:53;11.60;99.90
25112;DHT22;13092;51.996;4.458;2024-03-22T11:17:22;11.60;99.90
25112;DHT22;13092;51.996;4.458;2024-03-22T11:19:50;11.60;99.90
25112;DHT22;13092;51.996;4.458;2024-03-22T11:22:18;11.70;99.90
25112;DHT22;13092;51.996;4.458;2024-03-22T11:24:44;11.80;99.90
25112;DHT22;13092;51.996;4.458;2024-03-22T11:27:11;12.00;99.90
25112;DHT22;13092;51.996;4.458;2024-03-22T11:29:37;11.60;99.90
25112;DHT22;13092;51.996;4.458;2024-03-22T11:32:07;11.90;99.90
25112;DHT22;13092;51.996;4.458;2024-03-22T11:34:37;11.90;99.90
25112;DHT22;13092;51.996;4.458;2024-03-22T11:37:04;12.00;99.90
25112;DHT22;13092;51.996;4.458;2024-03-22T11:39:32;12.10;99.90
25112;DHT22;13092;51.996;4.458;2024-03-22T11:42:00;12.00;99.90
25112;DHT22;13092;51.996;4.458;2024-03-22T11:44:28;12.10;99.90
25112;DHT22;13092;51.996;4.458;2024-03-22T11:47:01;12.20;99.90
25112;DHT22;13092;51.996;4.458;2024-03-22T11:49:29;12.10;99.90
25112;DHT22;13092;51.996;4.458;2024-03-22T11:51:57;12.20;99.90
25112;DHT22;13092;51.996;4.458;2024-03-22T11:54:25;12.20;99.90
25112;DHT22;13092;51.996;4.458;2024-03-22T11:56:55;12.30;99.90
25112;DHT22;13092;51.996;4.458;2024-03-22T11:59:23;12.30;99.90
25112;DHT22;13092;51.996;4.458;2024-03-22T12:01:49;12.30;99.90
25112;DHT22;13092;51.996;4.458;2024-03-22T12:04:17;12.30;99.90
25112;DHT22;13092;51.996;4.458;2024-03-22T12:06:44;12.20;99.90
25112;DHT22;13092;51.996;4.458;2024-03-22T12:09:13;12.30;99.90
25112;DHT22;13092;51.996;4.458;2024-03-22T12:11:43;12.20;99.90
25112;DHT22;13092;51.996;4.458;2024-03-22T12:14:11;12.30;99.90
25112;DHT22;13092;51.996;4.458;2024-03-22T12:16:37;12.20;99.90
25112;DHT22;13092;51.996;4.458;2024-03-22T12:19:04;12.20;99.90
25112;DHT22;13092;51.996;4.458;2024-03-22T12:21:32;12.20;99.90
25112;DHT22;13092;51.996;4.458;2024-03-22T12:24:02;12.00;99.90
25112;DHT22;13092;51.996;4.458;2024-03-22T12:26:30;11.90;99.90
25112;DHT22;13092;51.996;4.458;2024-03-22T12:28:58;11.80;99.90
25112;DHT22;13092;51.996;4.458;2024-03-22T12:31:24;11.80;99.90
25112;DHT22;13092;51.996;4.458;2024-03-22T12:33:52;11.70;99.90
25112;DHT22;13092;51.996;4.458;2024-03-22T12:36:18;11.70;99.90
25112;DHT22;13092;51.996;4.458;2024-03-22T12:38:45;11.90;99.90
25112;DHT22;13092;51.996;4.458;2024-03-22T12:41:11;11.70;99.90
25112;DHT22;13092;51.996;4.458;2024-03-22T12:43:43;11.70;99.90
25112;DHT22;13092;51.996;4.458;2024-03-22T12:46:09;11.80;99.90
25112;DHT22;13092;51.996;4.458;2024-03-22T12:48:37;11.70;99.90
25112;DHT22;13092;51.996;4.458;2024-03-22T12:51:03;11.80;99.90
25112;DHT22;13092;51.996;4.458;2024-03-22T12:53:30;11.70;99.90
25112;DHT22;13092;51.996;4.458;2024-03-22T12:55:57;11.80;99.90
25112;DHT22;13092;51.996;4.458;2024-03-22T12:58:24;11.90;99.90
25112;DHT22;13092;51.996;4.458;2024-03-22T13:00:56;11.80;99.90
25112;DHT22;13092;51.996;4.458;2024-03-22T13:03:24;11.90;99.90
25112;DHT22;13092;51.996;4.458;2024-03-22T13:05:51;11.90;99.90
25112;DHT22;13092;51.996;4.458;2024-03-22T13:08:18;11.90;99.90
25112;DHT22;13092;51.996;4.458;2024-03-22T13:10:45;11.90;99.90
25112;DHT22;13092;51.996;4.458;2024-03-22T13:13:13;11.90;99.90
25112;DHT22;13092;51.996;4.458;2024-03-22T13:15:42;12.00;99.90
25112;DHT22;13092;51.996;4.458;2024-03-22T13:18:10;11.90;99.90
25112;DHT22;13092;51.996;4.458;2024-03-22T13:20:37;11.90;99.90
25112;DHT22;13092;51.996;4.458;2024-03-22T13:23:04;12.00;99.90
25112;DHT22;13092;51.996;4.458;2024-03-22T13:25:31;11.90;99.90
25112;DHT22;13092;51.996;4.458;2024-03-22T13:27:58;11.90;99.90
25112;DHT22;13092;51.996;4.458;2024-03-22T13:30:25;12.00;99.90
25112;DHT22;13092;51.996;4.458;2024-03-22T13:32:55;11.90;99.90
25112;DHT22;13092;51.996;4.458;2024-03-22T13:35:23;12.00;99.90
25112;DHT22;13092;51.996;4.458;2024-03-22T13:37:51;12.00;99.90
25112;DHT22;13092;51.996;4.458;2024-03-22T13:40:19;12.00;99.90
25112;DHT22;13092;51.996;4.458;2024-03-22T13:42:47;12.10;99.90
25112;DHT22;13092;51.996;4.458;2024-03-22T13:45:13;11.90;99.90
25112;DHT22;13092;51.996;4.458;2024-03-22T13:47:44;12.00;99.90
25112;DHT22;13092;51.996;4.458;2024-03-22T13:50:11;12.00;99.90
25112;DHT22;13092;51.996;4.458;2024-03-22T13:52:42;12.10;99.90
25112;DHT22;13092;51.996;4.458;2024-03-22T13:55:08;12.10;99.90
25112;DHT22;13092;51.996;4.458;2024-03-22T13:57:36;12.20;99.90
25112;DHT22;13092;51.996;4.458;2024-03-22T14:00:03;12.20;99.90
25112;DHT22;13092;51.996;4.458;2024-03-22T14:02:33;12.20;99.90
25112;DHT22;13092;51.996;4.458;2024-03-22T14:04:59;12.10;99.90
25112;DHT22;13092;51.996;4.458;2024-03-22T14:07:28;12.10;99.90
25112;DHT22;13092;51.996;4.458;2024-03-22T14:09:56;12.20;99.90
25112;DHT22;13092;51.996;4.458;2024-03-22T14:12:23;12.10;99.90
25112;DHT22;13092;51.996;4.458;2024-03-22T14:14:49;12.10;99.90
25112;DHT22;13092;51.996;4.458;2024-03-22T14:17:20;12.00;99.90
25112;DHT22;13092;51.996;4.458;2024-03-22T14:19:46;12.00;99.90
25112;DHT22;13092;51.996;4.458;2024-03-22T14:22:16;11.90;99.90
25112;DHT22;13092;51.996;4.458;2024-03-22T14:24:42;12.10;99.90
25112;DHT22;13092;51.996;4.458;2024-03-22T14:27:12;12.10;99.90
25112;DHT22;13092;51.996;4.458;2024-03-22T14:29:39;12.10;99.90
25112;DHT22;13092;51.996;4.458;2024-03-22T14:32:05;12.10;99.90
25112;DHT22;13092;51.996;4.458;2024-03-22T14:34:33;12.10;99.90
25112;DHT22;13092;51.996;4.458;2024-03-22T14:36:59;12.20;99.90
25112;DHT22;13092;51.996;4.458;2024-03-22T14:39:33;12.00;99.90
25112;DHT22;13092;51.996;4.458;2024-03-22T14:42:02;11.90;99.90
25112;DHT22;13092;51.996;4.458;2024-03-22T14:44:32;11.90;99.90
25112;DHT22;13092;51.996;4.458;2024-03-22T14:46:59;12.00;99.90
25112;DHT22;13092;51.996;4.458;2024-03-22T14:49:31;11.90;99.90
25112;DHT22;13092;51.996;4.458;2024-03-22T14:51:57;11.90;99.90
25112;DHT22;13092;51.996;4.458;2024-03-22T14:54:25;11.90;99.90
25112;DHT22;13092;51.996;4.458;2024-03-22T14:56:51;11.90;99.90
25112;DHT22;13092;51.996;4.458;2024-03-22T14:59:20;11.90;99.90
25112;DHT22;13092;51.996;4.458;2024-03-22T15:01:48;11.90;99.90
25112;DHT22;13092;51.996;4.458;2024-03-22T15:04:16;11.90;99.90
25112;DHT22;13092;51.996;4.458;2024-03-22T15:06:42;11.80;99.90
25112;DHT22;13092;51.996;4.458;2024-03-22T15:09:11;11.50;99.90
25112;DHT22;13092;51.996;4.458;2024-03-22T15:11:37;11.70;99.90
25112;DHT22;13092;51.996;4.458;2024-03-22T15:14:04;11.60;99.90
25112;DHT22;13092;51.996;4.458;2024-03-22T15:16:31;11.50;99.90
25112;DHT22;13092;51.996;4.458;2024-03-22T15:18:59;11.60;99.90
25112;DHT22;13092;51.996;4.458;2024-03-22T15:21:26;11.40;99.90
25112;DHT22;13092;51.996;4.458;2024-03-22T15:23:53;11.40;99.90
25112;DHT22;13092;51.996;4.458;2024-03-22T15:26:19;11.40;99.90
25112;DHT22;13092;51.996;4.458;2024-03-22T15:28:47;11.30;99.90
25112;DHT22;13092;51.996;4.458;2024-03-22T15:31:14;11.00;99.90
25112;DHT22;13092;51.996;4.458;2024-03-22T15:33:41;10.90;99.90
25112;DHT22;13092;51.996;4.458;2024-03-22T15:36:09;10.70;99.90